createdAt,value
2023-05-10T00:00:26.000Z,56.83870967741884
2023-05-10T00:01:29.000Z,56.54838709677369
2023-05-10T00:02:31.000Z,56.83870967741884
2023-05-10T00:03:33.000Z,56.935483870967225
2023-05-10T00:04:36.000Z,56.83870967741884
2023-05-10T00:05:38.000Z,56.935483870967225
2023-05-10T00:06:40.000Z,56.54838709677369
2023-05-10T00:07:43.000Z,56.83870967741884
2023-05-10T00:08:45.000Z,56.83870967741884
2023-05-10T00:09:47.000Z,56.935483870967225
2023-05-10T00:10:49.000Z,56.741935483870456
2023-05-10T00:11:52.000Z,56.4516129032253
2023-05-10T00:12:54.000Z,56.83870967741884
2023-05-10T00:13:56.000Z,57.22580645161238
2023-05-10T00:14:59.000Z,57.22580645161238
2023-05-10T00:16:01.000Z,56.741935483870456
2023-05-10T00:17:03.000Z,57.129032258063994
2023-05-10T00:18:06.000Z,57.129032258063994
2023-05-10T00:19:08.000Z,57.129032258063994
2023-05-10T00:20:10.000Z,57.32258064516076
2023-05-10T00:21:12.000Z,56.935483870967225
2023-05-10T00:22:15.000Z,57.129032258063994
2023-05-10T00:23:17.000Z,57.129032258063994
2023-05-10T00:24:19.000Z,57.03225806451561
2023-05-10T00:25:22.000Z,56.935483870967225
2023-05-10T00:26:24.000Z,56.83870967741884
2023-05-10T00:27:26.000Z,56.83870967741884
2023-05-10T00:28:28.000Z,56.35483870967692
2023-05-10T00:29:31.000Z,56.64516129032207
2023-05-10T00:30:33.000Z,56.935483870967225
2023-05-10T00:31:35.000Z,56.83870967741884
2023-05-10T00:32:37.000Z,56.741935483870456
2023-05-10T00:33:40.000Z,56.54838709677369
2023-05-10T00:34:42.000Z,56.54838709677369
2023-05-10T00:35:45.000Z,56.741935483870456
2023-05-10T00:36:47.000Z,56.83870967741884
2023-05-10T00:37:49.000Z,56.83870967741884
2023-05-10T00:38:51.000Z,56.83870967741884
2023-05-10T00:39:54.000Z,56.64516129032207
2023-05-10T00:40:56.000Z,56.935483870967225
2023-05-10T00:41:58.000Z,56.741935483870456
2023-05-10T00:43:01.000Z,57.129032258063994
2023-05-10T00:44:03.000Z,57.22580645161238
2023-05-10T00:45:05.000Z,57.129032258063994
2023-05-10T00:46:07.000Z,57.32258064516076
2023-05-10T00:47:10.000Z,57.129032258063994
2023-05-10T00:48:12.000Z,56.83870967741884
2023-05-10T00:49:14.000Z,57.22580645161238
2023-05-10T00:50:17.000Z,57.129032258063994
2023-05-10T00:51:19.000Z,57.129032258063994
2023-05-10T00:52:21.000Z,57.129032258063994
2023-05-10T00:53:24.000Z,56.83870967741884
2023-05-10T00:54:26.000Z,57.03225806451561
2023-05-10T00:55:28.000Z,56.935483870967225
2023-05-10T00:56:30.000Z,56.83870967741884
2023-05-10T00:57:33.000Z,56.741935483870456
2023-05-10T00:58:35.000Z,56.258064516128535
2023-05-10T00:59:37.000Z,56.83870967741884
2023-05-10T01:00:40.000Z,56.741935483870456
2023-05-10T01:01:42.000Z,56.741935483870456
2023-05-10T01:02:44.000Z,56.64516129032207
2023-05-10T01:03:46.000Z,56.935483870967225
2023-05-10T01:04:49.000Z,56.741935483870456
2023-05-10T01:05:51.000Z,56.935483870967225
2023-05-10T01:06:53.000Z,56.741935483870456
2023-05-10T01:07:56.000Z,56.64516129032207
2023-05-10T01:08:58.000Z,57.03225806451561
2023-05-10T01:10:00.000Z,57.129032258063994
2023-05-10T01:11:02.000Z,57.32258064516076
2023-05-10T01:12:05.000Z,57.03225806451561
2023-05-10T01:13:07.000Z,56.83870967741884
2023-05-10T01:14:09.000Z,57.129032258063994
2023-05-10T01:15:12.000Z,57.22580645161238
2023-05-10T01:16:14.000Z,57.32258064516076
2023-05-10T01:17:16.000Z,57.22580645161238
2023-05-10T01:18:19.000Z,57.03225806451561
2023-05-10T01:19:21.000Z,56.935483870967225
2023-05-10T01:20:23.000Z,57.129032258063994
2023-05-10T01:21:25.000Z,57.22580645161238
2023-05-10T01:22:28.000Z,57.03225806451561
2023-05-10T01:23:30.000Z,56.935483870967225
2023-05-10T01:24:32.000Z,56.64516129032207
2023-05-10T01:25:35.000Z,56.83870967741884
2023-05-10T01:26:37.000Z,56.935483870967225
2023-05-10T01:27:39.000Z,56.83870967741884
2023-05-10T01:28:41.000Z,56.64516129032207
2023-05-10T01:29:44.000Z,56.64516129032207
2023-05-10T01:30:46.000Z,56.83870967741884
2023-05-10T01:31:48.000Z,57.03225806451561
2023-05-10T01:32:51.000Z,56.83870967741884
2023-05-10T01:33:53.000Z,56.741935483870456
2023-05-10T01:34:55.000Z,56.83870967741884
2023-05-10T01:35:58.000Z,56.54838709677369
2023-05-10T01:37:00.000Z,56.83870967741884
2023-05-10T01:38:02.000Z,56.935483870967225
2023-05-10T01:39:05.000Z,57.129032258063994
2023-05-10T01:40:07.000Z,57.03225806451561
2023-05-10T01:41:09.000Z,56.83870967741884
2023-05-10T01:42:11.000Z,57.03225806451561
2023-05-10T01:43:14.000Z,57.129032258063994
2023-05-10T01:44:16.000Z,57.129032258063994
2023-05-10T01:45:18.000Z,57.22580645161238
2023-05-10T01:46:20.000Z,57.03225806451561
2023-05-10T01:47:23.000Z,56.741935483870456
2023-05-10T01:48:25.000Z,57.03225806451561
2023-05-10T01:49:27.000Z,57.129032258063994
2023-05-10T01:50:29.000Z,56.741935483870456
2023-05-10T01:51:32.000Z,56.83870967741884
2023-05-10T01:52:34.000Z,56.741935483870456
2023-05-10T01:53:37.000Z,56.935483870967225
2023-05-10T01:54:39.000Z,57.22580645161238
2023-05-10T01:55:41.000Z,56.83870967741884
2023-05-10T01:56:43.000Z,56.83870967741884
2023-05-10T01:57:46.000Z,56.83870967741884
2023-05-10T01:58:48.000Z,56.935483870967225
2023-05-10T01:59:50.000Z,56.83870967741884
2023-05-10T02:00:53.000Z,56.83870967741884
2023-05-10T02:01:55.000Z,56.741935483870456
2023-05-10T02:02:57.000Z,56.83870967741884
2023-05-10T02:03:59.000Z,56.64516129032207
2023-05-10T02:05:02.000Z,57.129032258063994
2023-05-10T02:06:04.000Z,57.129032258063994
2023-05-10T02:07:06.000Z,57.129032258063994
2023-05-10T02:08:09.000Z,56.935483870967225
2023-05-10T02:09:11.000Z,57.129032258063994
2023-05-10T02:10:13.000Z,56.83870967741884
2023-05-10T02:11:15.000Z,57.129032258063994
2023-05-10T02:12:18.000Z,57.22580645161238
2023-05-10T02:13:20.000Z,56.83870967741884
2023-05-10T02:14:22.000Z,57.129032258063994
2023-05-10T02:15:25.000Z,57.22580645161238
2023-05-10T02:16:27.000Z,57.22580645161238
2023-05-10T02:17:29.000Z,57.22580645161238
2023-05-10T02:18:31.000Z,56.83870967741884
2023-05-10T02:19:34.000Z,56.935483870967225
2023-05-10T02:20:36.000Z,56.935483870967225
2023-05-10T02:21:38.000Z,56.741935483870456
2023-05-10T02:22:41.000Z,56.64516129032207
2023-05-10T02:23:43.000Z,56.83870967741884
2023-05-10T02:24:45.000Z,56.741935483870456
2023-05-10T02:25:48.000Z,56.83870967741884
2023-05-10T02:26:50.000Z,56.935483870967225
2023-05-10T02:27:52.000Z,56.741935483870456
2023-05-10T02:28:54.000Z,56.83870967741884
2023-05-10T02:29:57.000Z,56.83870967741884
2023-05-10T02:30:59.000Z,56.83870967741884
2023-05-10T02:32:01.000Z,57.129032258063994
2023-05-10T02:33:04.000Z,56.64516129032207
2023-05-10T02:34:06.000Z,57.03225806451561
2023-05-10T02:35:08.000Z,57.129032258063994
2023-05-10T02:36:11.000Z,57.129032258063994
2023-05-10T02:37:13.000Z,57.129032258063994
2023-05-10T02:38:15.000Z,56.83870967741884
2023-05-10T02:39:18.000Z,57.129032258063994
2023-05-10T02:40:20.000Z,56.83870967741884
2023-05-10T02:41:22.000Z,57.22580645161238
2023-05-10T02:42:25.000Z,57.22580645161238
2023-05-10T02:43:27.000Z,57.129032258063994
2023-05-10T02:44:29.000Z,56.64516129032207
2023-05-10T02:45:31.000Z,57.129032258063994
2023-05-10T02:46:34.000Z,57.03225806451561
2023-05-10T02:47:36.000Z,56.83870967741884
2023-05-10T02:48:38.000Z,56.741935483870456
2023-05-10T02:49:41.000Z,56.54838709677369
2023-05-10T02:50:43.000Z,56.54838709677369
2023-05-10T02:51:46.000Z,56.64516129032207
2023-05-10T02:52:48.000Z,56.83870967741884
2023-05-10T02:53:50.000Z,56.83870967741884
2023-05-10T02:54:52.000Z,56.83870967741884
2023-05-10T02:55:55.000Z,56.54838709677369
2023-05-10T02:56:57.000Z,56.83870967741884
2023-05-10T02:57:59.000Z,57.129032258063994
2023-05-10T02:59:01.000Z,56.64516129032207
2023-05-10T03:00:04.000Z,56.83870967741884
2023-05-10T03:01:06.000Z,57.22580645161238
2023-05-10T03:02:08.000Z,57.129032258063994
2023-05-10T03:03:11.000Z,57.03225806451561
2023-05-10T03:04:13.000Z,56.83870967741884
2023-05-10T03:05:15.000Z,57.32258064516076
2023-05-10T03:06:17.000Z,57.03225806451561
2023-05-10T03:07:20.000Z,57.22580645161238
2023-05-10T03:08:22.000Z,56.935483870967225
2023-05-10T03:09:24.000Z,57.22580645161238
2023-05-10T03:10:27.000Z,56.83870967741884
2023-05-10T03:11:29.000Z,57.129032258063994
2023-05-10T03:12:32.000Z,57.22580645161238
2023-05-10T03:13:34.000Z,56.935483870967225
2023-05-10T03:14:36.000Z,56.83870967741884
2023-05-10T03:15:38.000Z,56.935483870967225
2023-05-10T03:16:41.000Z,56.83870967741884
2023-05-10T03:17:43.000Z,56.741935483870456
2023-05-10T03:18:45.000Z,57.03225806451561
2023-05-10T03:19:48.000Z,56.54838709677369
2023-05-10T03:20:50.000Z,56.83870967741884
2023-05-10T03:21:52.000Z,57.03225806451561
2023-05-10T03:22:54.000Z,56.935483870967225
2023-05-10T03:23:57.000Z,56.83870967741884
2023-05-10T03:24:59.000Z,56.64516129032207
2023-05-10T03:26:01.000Z,56.64516129032207
2023-05-10T03:27:04.000Z,56.935483870967225
2023-05-10T03:28:06.000Z,57.129032258063994
2023-05-10T03:29:08.000Z,56.935483870967225
2023-05-10T03:30:10.000Z,57.129032258063994
2023-05-10T03:31:13.000Z,57.129032258063994
2023-05-10T03:32:15.000Z,57.129032258063994
2023-05-10T03:33:17.000Z,56.83870967741884
2023-05-10T03:34:20.000Z,57.22580645161238
2023-05-10T03:35:22.000Z,57.22580645161238
2023-05-10T03:36:24.000Z,57.129032258063994
2023-05-10T03:37:27.000Z,57.22580645161238
2023-05-10T03:38:29.000Z,57.22580645161238
2023-05-10T03:39:31.000Z,57.32258064516076
2023-05-10T03:40:33.000Z,57.129032258063994
2023-05-10T03:41:36.000Z,56.64516129032207
2023-05-10T03:42:38.000Z,56.935483870967225
2023-05-10T03:43:40.000Z,56.935483870967225
2023-05-10T03:44:43.000Z,56.741935483870456
2023-05-10T03:45:45.000Z,56.741935483870456
2023-05-10T03:46:47.000Z,57.129032258063994
2023-05-10T03:47:49.000Z,56.83870967741884
2023-05-10T03:48:52.000Z,56.935483870967225
2023-05-10T03:49:54.000Z,56.935483870967225
2023-05-10T03:50:56.000Z,56.64516129032207
2023-05-10T03:51:58.000Z,56.935483870967225
2023-05-10T03:53:01.000Z,56.741935483870456
2023-05-10T03:54:03.000Z,56.935483870967225
2023-05-10T03:55:05.000Z,56.83870967741884
2023-05-10T03:56:08.000Z,56.935483870967225
2023-05-10T03:57:10.000Z,57.129032258063994
2023-05-10T03:58:12.000Z,57.22580645161238
2023-05-10T03:59:15.000Z,57.32258064516076
2023-05-10T04:00:17.000Z,56.935483870967225
2023-05-10T04:01:19.000Z,57.22580645161238
2023-05-10T04:02:22.000Z,57.129032258063994
2023-05-10T04:03:24.000Z,57.129032258063994
2023-05-10T04:04:26.000Z,57.129032258063994
2023-05-10T04:05:28.000Z,56.83870967741884
2023-05-10T04:06:31.000Z,57.22580645161238
2023-05-10T04:07:33.000Z,57.32258064516076
2023-05-10T04:08:35.000Z,57.129032258063994
2023-05-10T04:09:38.000Z,56.64516129032207
2023-05-10T04:10:40.000Z,56.741935483870456
2023-05-10T04:11:42.000Z,56.54838709677369
2023-05-10T04:12:44.000Z,56.741935483870456
2023-05-10T04:13:47.000Z,56.64516129032207
2023-05-10T04:14:49.000Z,56.83870967741884
2023-05-10T04:15:51.000Z,56.741935483870456
2023-05-10T04:16:53.000Z,56.54838709677369
2023-05-10T04:17:56.000Z,56.54838709677369
2023-05-10T04:18:58.000Z,56.741935483870456
2023-05-10T04:20:00.000Z,56.83870967741884
2023-05-10T04:21:03.000Z,56.83870967741884
2023-05-10T04:22:05.000Z,56.83870967741884
2023-05-10T04:23:07.000Z,57.03225806451561
2023-05-10T04:24:10.000Z,56.741935483870456
2023-05-10T04:25:12.000Z,56.935483870967225
2023-05-10T04:26:14.000Z,57.32258064516076
2023-05-10T04:27:17.000Z,57.129032258063994
2023-05-10T04:28:19.000Z,57.03225806451561
2023-05-10T04:29:21.000Z,57.129032258063994
2023-05-10T04:30:24.000Z,57.22580645161238
2023-05-10T04:31:26.000Z,56.935483870967225
2023-05-10T04:32:28.000Z,57.129032258063994
2023-05-10T04:33:31.000Z,57.129032258063994
2023-05-10T04:34:33.000Z,57.129032258063994
2023-05-10T04:35:35.000Z,57.22580645161238
2023-05-10T04:36:37.000Z,57.03225806451561
2023-05-10T04:37:40.000Z,56.64516129032207
2023-05-10T04:38:42.000Z,56.83870967741884
2023-05-10T04:39:44.000Z,56.83870967741884
2023-05-10T04:40:47.000Z,56.935483870967225
2023-05-10T04:41:49.000Z,56.935483870967225
2023-05-10T04:42:51.000Z,56.83870967741884
2023-05-10T04:43:53.000Z,57.03225806451561
2023-05-10T04:44:56.000Z,56.54838709677369
2023-05-10T04:45:58.000Z,56.935483870967225
2023-05-10T04:47:00.000Z,56.83870967741884
2023-05-10T04:48:02.000Z,56.83870967741884
2023-05-10T04:49:05.000Z,57.51612903225753
2023-05-10T04:50:07.000Z,56.83870967741884
2023-05-10T04:51:09.000Z,57.22580645161238
2023-05-10T04:52:12.000Z,57.129032258063994
2023-05-10T04:53:14.000Z,56.935483870967225
2023-05-10T04:54:16.000Z,57.22580645161238
2023-05-10T04:55:18.000Z,57.41935483870915
2023-05-10T04:56:21.000Z,57.22580645161238
2023-05-10T04:57:23.000Z,57.32258064516076
2023-05-10T04:58:25.000Z,57.32258064516076
2023-05-10T04:59:27.000Z,57.22580645161238
2023-05-10T05:00:30.000Z,57.129032258063994
2023-05-10T05:01:32.000Z,57.32258064516076
2023-05-10T05:02:34.000Z,57.32258064516076
2023-05-10T05:03:37.000Z,57.32258064516076
2023-05-10T05:04:39.000Z,57.32258064516076
2023-05-10T05:05:41.000Z,56.741935483870456
2023-05-10T05:06:43.000Z,57.129032258063994
2023-05-10T05:07:46.000Z,56.935483870967225
2023-05-10T05:08:48.000Z,57.03225806451561
2023-05-10T05:09:50.000Z,57.03225806451561
2023-05-10T05:10:52.000Z,56.935483870967225
2023-05-10T05:11:55.000Z,57.129032258063994
2023-05-10T05:12:57.000Z,56.64516129032207
2023-05-10T05:13:59.000Z,56.935483870967225
2023-05-10T05:15:02.000Z,56.935483870967225
2023-05-10T05:16:04.000Z,56.83870967741884
2023-05-10T05:17:06.000Z,57.129032258063994
2023-05-10T05:18:08.000Z,56.935483870967225
2023-05-10T05:19:11.000Z,56.935483870967225
2023-05-10T05:20:13.000Z,56.935483870967225
2023-05-10T05:21:15.000Z,57.22580645161238
2023-05-10T05:22:18.000Z,57.22580645161238
2023-05-10T05:23:20.000Z,57.32258064516076
2023-05-10T05:24:22.000Z,57.41935483870915
2023-05-10T05:25:24.000Z,57.22580645161238
2023-05-10T05:26:27.000Z,57.32258064516076
2023-05-10T05:27:29.000Z,56.935483870967225
2023-05-10T05:28:31.000Z,57.129032258063994
2023-05-10T05:29:34.000Z,57.22580645161238
2023-05-10T05:30:36.000Z,57.41935483870915
2023-05-10T05:31:38.000Z,57.41935483870915
2023-05-10T05:32:40.000Z,57.41935483870915
2023-05-10T05:33:43.000Z,57.22580645161238
2023-05-10T05:34:45.000Z,56.935483870967225
2023-05-10T05:35:47.000Z,57.03225806451561
2023-05-10T05:36:50.000Z,57.03225806451561
2023-05-10T05:37:52.000Z,57.03225806451561
2023-05-10T05:38:54.000Z,57.03225806451561
2023-05-10T05:39:56.000Z,57.03225806451561
2023-05-10T05:40:59.000Z,56.741935483870456
2023-05-10T05:42:01.000Z,56.935483870967225
2023-05-10T05:43:04.000Z,57.03225806451561
2023-05-10T05:44:06.000Z,57.03225806451561
2023-05-10T05:45:08.000Z,57.03225806451561
2023-05-10T05:46:10.000Z,56.83870967741884
2023-05-10T05:47:13.000Z,57.32258064516076
2023-05-10T05:48:15.000Z,57.32258064516076
2023-05-10T05:49:17.000Z,56.935483870967225
2023-05-10T05:50:20.000Z,57.32258064516076
2023-05-10T05:51:22.000Z,57.32258064516076
2023-05-10T05:52:24.000Z,57.32258064516076
2023-05-10T05:53:26.000Z,57.32258064516076
2023-05-10T05:54:29.000Z,57.32258064516076
2023-05-10T05:55:31.000Z,57.612903225805915
2023-05-10T05:56:33.000Z,57.32258064516076
2023-05-10T05:57:36.000Z,56.935483870967225
2023-05-10T05:58:38.000Z,57.32258064516076
2023-05-10T05:59:40.000Z,57.41935483870915
2023-05-10T06:00:42.000Z,57.03225806451561
2023-05-10T06:01:45.000Z,57.129032258063994
2023-05-10T06:02:47.000Z,57.129032258063994
2023-05-10T06:03:49.000Z,56.83870967741884
2023-05-10T06:04:52.000Z,57.129032258063994
2023-05-10T06:05:54.000Z,57.03225806451561
2023-05-10T06:06:56.000Z,57.32258064516076
2023-05-10T06:07:59.000Z,57.03225806451561
2023-05-10T06:09:01.000Z,57.03225806451561
2023-05-10T06:10:03.000Z,57.03225806451561
2023-05-10T06:11:05.000Z,56.83870967741884
2023-05-10T06:12:08.000Z,57.03225806451561
2023-05-10T06:13:10.000Z,57.129032258063994
2023-05-10T06:14:12.000Z,57.32258064516076
2023-05-10T06:15:15.000Z,57.41935483870915
2023-05-10T06:16:17.000Z,57.32258064516076
2023-05-10T06:17:19.000Z,57.22580645161238
2023-05-10T06:18:21.000Z,57.22580645161238
2023-05-10T06:19:24.000Z,57.41935483870915
2023-05-10T06:20:26.000Z,57.41935483870915
2023-05-10T06:21:28.000Z,57.41935483870915
2023-05-10T06:22:31.000Z,57.51612903225753
2023-05-10T06:23:33.000Z,57.51612903225753
2023-05-10T06:24:35.000Z,57.22580645161238
2023-05-10T06:25:37.000Z,57.22580645161238
2023-05-10T06:26:40.000Z,57.41935483870915
2023-05-10T06:27:42.000Z,57.41935483870915
2023-05-10T06:28:44.000Z,57.22580645161238
2023-05-10T06:29:47.000Z,57.03225806451561
2023-05-10T06:30:49.000Z,57.32258064516076
2023-05-10T06:31:51.000Z,57.32258064516076
2023-05-10T06:32:54.000Z,57.51612903225753
2023-05-10T06:33:56.000Z,57.32258064516076
2023-05-10T06:34:58.000Z,57.03225806451561
2023-05-10T06:36:00.000Z,57.129032258063994
2023-05-10T06:37:03.000Z,57.32258064516076
2023-05-10T06:38:05.000Z,57.32258064516076
2023-05-10T06:39:07.000Z,57.41935483870915
2023-05-10T06:40:09.000Z,57.32258064516076
2023-05-10T06:41:12.000Z,57.32258064516076
2023-05-10T06:42:14.000Z,57.32258064516076
2023-05-10T06:43:17.000Z,57.7096774193543
2023-05-10T06:44:19.000Z,57.7096774193543
2023-05-10T06:45:21.000Z,57.51612903225753
2023-05-10T06:46:23.000Z,57.22580645161238
2023-05-10T06:47:26.000Z,57.612903225805915
2023-05-10T06:48:28.000Z,57.612903225805915
2023-05-10T06:49:30.000Z,57.41935483870915
2023-05-10T06:50:33.000Z,57.612903225805915
2023-05-10T06:51:35.000Z,57.51612903225753
2023-05-10T06:52:37.000Z,57.51612903225753
2023-05-10T06:53:39.000Z,57.7096774193543
2023-05-10T06:54:42.000Z,57.41935483870915
2023-05-10T06:55:44.000Z,57.129032258063994
2023-05-10T06:56:46.000Z,57.129032258063994
2023-05-10T06:57:49.000Z,57.22580645161238
2023-05-10T06:58:51.000Z,57.22580645161238
2023-05-10T06:59:53.000Z,57.22580645161238
2023-05-10T07:00:56.000Z,57.32258064516076
2023-05-10T07:01:58.000Z,57.32258064516076
2023-05-10T07:03:00.000Z,57.32258064516076
2023-05-10T07:04:02.000Z,57.22580645161238
2023-05-10T07:05:05.000Z,56.935483870967225
2023-05-10T07:06:07.000Z,57.03225806451561
2023-05-10T07:07:09.000Z,57.22580645161238
2023-05-10T07:08:12.000Z,57.22580645161238
2023-05-10T07:09:14.000Z,57.22580645161238
2023-05-10T07:10:16.000Z,57.51612903225753
2023-05-10T07:11:18.000Z,57.51612903225753
2023-05-10T07:12:21.000Z,57.129032258063994
2023-05-10T07:13:23.000Z,57.41935483870915
2023-05-10T07:14:25.000Z,57.41935483870915
2023-05-10T07:15:28.000Z,57.51612903225753
2023-05-10T07:16:30.000Z,57.7096774193543
2023-05-10T07:17:32.000Z,57.41935483870915
2023-05-10T07:18:34.000Z,57.41935483870915
2023-05-10T07:19:37.000Z,57.51612903225753
2023-05-10T07:20:39.000Z,57.22580645161238
2023-05-10T07:21:42.000Z,57.22580645161238
2023-05-10T07:22:44.000Z,57.32258064516076
2023-05-10T07:23:46.000Z,57.612903225805915
2023-05-10T07:24:49.000Z,57.129032258063994
2023-05-10T07:25:51.000Z,57.32258064516076
2023-05-10T07:26:53.000Z,57.22580645161238
2023-05-10T07:27:55.000Z,57.22580645161238
2023-05-10T07:28:58.000Z,56.83870967741884
2023-05-10T07:30:00.000Z,57.22580645161238
2023-05-10T07:31:02.000Z,57.129032258063994
2023-05-10T07:32:05.000Z,57.22580645161238
2023-05-10T07:33:07.000Z,57.129032258063994
2023-05-10T07:34:09.000Z,57.22580645161238
2023-05-10T07:35:11.000Z,57.03225806451561
2023-05-10T07:36:19.000Z,57.612903225805915
2023-05-10T07:37:21.000Z,57.41935483870915
2023-05-10T07:38:23.000Z,57.51612903225753
2023-05-10T07:39:26.000Z,57.32258064516076
2023-05-10T07:40:28.000Z,57.41935483870915
2023-05-10T07:41:30.000Z,57.51612903225753
2023-05-10T07:42:33.000Z,57.41935483870915
2023-05-10T07:43:35.000Z,57.41935483870915
2023-05-10T07:44:37.000Z,57.51612903225753
2023-05-10T07:45:39.000Z,57.612903225805915
2023-05-10T07:46:42.000Z,57.90322580645107
2023-05-10T07:47:44.000Z,57.612903225805915
2023-05-10T07:48:46.000Z,57.612903225805915
2023-05-10T07:49:49.000Z,57.32258064516076
2023-05-10T07:50:51.000Z,57.32258064516076
2023-05-10T07:51:53.000Z,57.129032258063994
2023-05-10T07:52:55.000Z,57.129032258063994
2023-05-10T07:53:58.000Z,56.935483870967225
2023-05-10T07:55:00.000Z,57.129032258063994
2023-05-10T07:56:02.000Z,57.32258064516076
2023-05-10T07:57:05.000Z,57.129032258063994
2023-05-10T07:58:07.000Z,57.41935483870915
2023-05-10T07:59:09.000Z,57.51612903225753
2023-05-10T08:00:11.000Z,57.612903225805915
2023-05-10T08:01:14.000Z,57.41935483870915
2023-05-10T08:02:16.000Z,57.32258064516076
2023-05-10T08:03:18.000Z,57.41935483870915
2023-05-10T08:04:21.000Z,57.7096774193543
2023-05-10T08:05:23.000Z,57.41935483870915
2023-05-10T08:06:25.000Z,57.32258064516076
2023-05-10T08:07:27.000Z,57.7096774193543
2023-05-10T08:08:30.000Z,57.7096774193543
2023-05-10T08:09:32.000Z,57.7096774193543
2023-05-10T08:10:34.000Z,57.7096774193543
2023-05-10T08:11:37.000Z,57.806451612902684
2023-05-10T08:12:39.000Z,57.806451612902684
2023-05-10T08:13:41.000Z,57.99999999999945
2023-05-10T08:14:44.000Z,57.806451612902684
2023-05-10T08:15:46.000Z,57.806451612902684
2023-05-10T08:16:48.000Z,57.612903225805915
2023-05-10T08:17:50.000Z,57.03225806451561
2023-05-10T08:18:53.000Z,57.129032258063994
2023-05-10T08:19:55.000Z,57.32258064516076
2023-05-10T08:20:57.000Z,57.41935483870915
2023-05-10T08:22:00.000Z,57.41935483870915
2023-05-10T08:23:02.000Z,57.41935483870915
2023-05-10T08:24:04.000Z,57.51612903225753
2023-05-10T08:25:06.000Z,57.41935483870915
2023-05-10T08:26:09.000Z,57.41935483870915
2023-05-10T08:27:11.000Z,57.22580645161238
2023-05-10T08:28:13.000Z,57.129032258063994
2023-05-10T08:29:16.000Z,57.03225806451561
2023-05-10T08:30:18.000Z,57.51612903225753
2023-05-10T08:31:20.000Z,57.612903225805915
2023-05-10T08:32:23.000Z,57.7096774193543
2023-05-10T08:33:25.000Z,57.612903225805915
2023-05-10T08:34:27.000Z,57.612903225805915
2023-05-10T08:35:29.000Z,57.7096774193543
2023-05-10T08:36:32.000Z,57.7096774193543
2023-05-10T08:37:34.000Z,57.129032258063994
2023-05-10T08:38:36.000Z,57.51612903225753
2023-05-10T08:39:38.000Z,57.612903225805915
2023-05-10T08:40:41.000Z,57.7096774193543
2023-05-10T08:41:43.000Z,57.612903225805915
2023-05-10T08:42:46.000Z,57.7096774193543
2023-05-10T08:43:48.000Z,57.7096774193543
2023-05-10T08:44:50.000Z,57.7096774193543
2023-05-10T08:45:52.000Z,57.32258064516076
2023-05-10T08:46:55.000Z,57.32258064516076
2023-05-10T08:47:57.000Z,57.22580645161238
2023-05-10T08:48:59.000Z,57.03225806451561
2023-05-10T08:50:02.000Z,57.03225806451561
2023-05-10T08:51:04.000Z,57.32258064516076
2023-05-10T08:52:06.000Z,57.32258064516076
2023-05-10T08:53:08.000Z,57.41935483870915
2023-05-10T08:54:11.000Z,57.41935483870915
2023-05-10T08:55:13.000Z,57.41935483870915
2023-05-10T08:56:15.000Z,57.32258064516076
2023-05-10T08:57:18.000Z,57.32258064516076
2023-05-10T08:58:20.000Z,57.32258064516076
2023-05-10T08:59:22.000Z,57.612903225805915
2023-05-10T09:00:24.000Z,57.32258064516076
2023-05-10T09:01:27.000Z,57.41935483870915
2023-05-10T09:02:29.000Z,57.612903225805915
2023-05-10T09:03:31.000Z,57.612903225805915
2023-05-10T09:04:34.000Z,57.612903225805915
2023-05-10T09:05:36.000Z,57.7096774193543
2023-05-10T09:06:38.000Z,57.51612903225753
2023-05-10T09:07:41.000Z,57.7096774193543
2023-05-10T09:08:43.000Z,57.612903225805915
2023-05-10T09:09:45.000Z,57.7096774193543
2023-05-10T09:10:47.000Z,57.22580645161238
2023-05-10T09:11:50.000Z,57.7096774193543
2023-05-10T09:12:52.000Z,57.41935483870915
2023-05-10T09:13:54.000Z,57.22580645161238
2023-05-10T09:14:57.000Z,57.32258064516076
2023-05-10T09:15:59.000Z,57.51612903225753
2023-05-10T09:17:01.000Z,57.32258064516076
2023-05-10T09:18:04.000Z,57.32258064516076
2023-05-10T09:19:06.000Z,57.22580645161238
2023-05-10T09:20:08.000Z,57.32258064516076
2023-05-10T09:21:11.000Z,56.741935483870456
2023-05-10T09:22:13.000Z,57.32258064516076
2023-05-10T09:23:15.000Z,57.22580645161238
2023-05-10T09:24:17.000Z,57.129032258063994
2023-05-10T09:25:20.000Z,57.22580645161238
2023-05-10T09:26:22.000Z,57.22580645161238
2023-05-10T09:27:24.000Z,57.41935483870915
2023-05-10T09:28:27.000Z,57.41935483870915
2023-05-10T09:29:29.000Z,57.129032258063994
2023-05-10T09:30:31.000Z,57.612903225805915
2023-05-10T09:31:34.000Z,57.51612903225753
2023-05-10T09:32:36.000Z,57.51612903225753
2023-05-10T09:33:38.000Z,57.51612903225753